sensor_id;sensor_type;location;lat;lon;timestamp;P1;durP1;ratioP1;P2;durP2;ratioP2
68188;SDS011;66299;47.514;19.218;2023-03-14T00:01:24;18.02;;;8.25;;
68188;SDS011;66299;47.514;19.218;2023-03-14T00:03:52;18.10;;;9.13;;
68188;SDS011;66299;47.514;19.218;2023-03-14T00:06:21;19.33;;;9.27;;
68188;SDS011;66299;47.514;19.218;2023-03-14T00:08:51;19.63;;;9.10;;
68188;SDS011;66299;47.514;19.218;2023-03-14T00:11:21;18.98;;;9.10;;
68188;SDS011;66299;47.514;19.218;2023-03-14T00:13:49;18.55;;;9.20;;
68188;SDS011;66299;47.514;19.218;2023-03-14T00:16:22;18.52;;;8.95;;
68188;SDS011;66299;47.514;19.218;2023-03-14T00:18:54;19.85;;;9.43;;
68188;SDS011;66299;47.514;19.218;2023-03-14T00:21:24;18.25;;;9.10;;
68188;SDS011;66299;47.514;19.218;2023-03-14T00:23:52;16.98;;;8.95;;
68188;SDS011;66299;47.514;19.218;2023-03-14T00:26:22;19.05;;;9.25;;
68188;SDS011;66299;47.514;19.218;2023-03-14T00:28:52;19.77;;;9.32;;
68188;SDS011;66299;47.514;19.218;2023-03-14T00:31:23;19.85;;;9.00;;
68188;SDS011;66299;47.514;19.218;2023-03-14T00:33:52;19.83;;;9.27;;
68188;SDS011;66299;47.514;19.218;2023-03-14T00:36:21;18.67;;;9.13;;
68188;SDS011;66299;47.514;19.218;2023-03-14T00:38:51;21.17;;;9.25;;
68188;SDS011;66299;47.514;19.218;2023-03-14T00:41:22;20.17;;;9.75;;
68188;SDS011;66299;47.514;19.218;2023-03-14T00:43:51;19.15;;;9.40;;
68188;SDS011;66299;47.514;19.218;2023-03-14T00:46:21;21.95;;;9.70;;
68188;SDS011;66299;47.514;19.218;2023-03-14T00:48:51;21.92;;;9.45;;
68188;SDS011;66299;47.514;19.218;2023-03-14T00:51:21;20.48;;;9.18;;
68188;SDS011;66299;47.514;19.218;2023-03-14T00:53:57;20.73;;;9.98;;
68188;SDS011;66299;47.514;19.218;2023-03-14T00:56:27;18.15;;;9.32;;
68188;SDS011;66299;47.514;19.218;2023-03-14T00:58:57;22.38;;;9.60;;
68188;SDS011;66299;47.514;19.218;2023-03-14T01:01:25;22.75;;;10.07;;
68188;SDS011;66299;47.514;19.218;2023-03-14T01:03:56;18.42;;;9.60;;
68188;SDS011;66299;47.514;19.218;2023-03-14T01:06:27;20.50;;;10.23;;
68188;SDS011;66299;47.514;19.218;2023-03-14T01:08:57;21.13;;;9.68;;
68188;SDS011;66299;47.514;19.218;2023-03-14T01:11:27;18.92;;;9.73;;
68188;SDS011;66299;47.514;19.218;2023-03-14T01:13:57;17.95;;;9.43;;
68188;SDS011;66299;47.514;19.218;2023-03-14T01:16:27;17.80;;;9.05;;
68188;SDS011;66299;47.514;19.218;2023-03-14T01:19:00;19.55;;;10.10;;
68188;SDS011;66299;47.514;19.218;2023-03-14T01:21:30;20.10;;;9.73;;
68188;SDS011;66299;47.514;19.218;2023-03-14T01:24:00;18.52;;;9.55;;
68188;SDS011;66299;47.514;19.218;2023-03-14T01:26:30;19.83;;;9.45;;
68188;SDS011;66299;47.514;19.218;2023-03-14T01:29:01;20.20;;;9.75;;
68188;SDS011;66299;47.514;19.218;2023-03-14T01:31:31;18.90;;;9.48;;
68188;SDS011;66299;47.514;19.218;2023-03-14T01:34:03;18.40;;;9.50;;
68188;SDS011;66299;47.514;19.218;2023-03-14T01:36:34;23.15;;;10.05;;
68188;SDS011;66299;47.514;19.218;2023-03-14T01:39:07;20.85;;;10.05;;
68188;SDS011;66299;47.514;19.218;2023-03-14T01:41:36;20.08;;;9.63;;
68188;SDS011;66299;47.514;19.218;2023-03-14T01:44:08;23.20;;;9.57;;
68188;SDS011;66299;47.514;19.218;2023-03-14T01:46:38;25.07;;;9.87;;
68188;SDS011;66299;47.514;19.218;2023-03-14T01:49:13;22.40;;;10.27;;
68188;SDS011;66299;47.514;19.218;2023-03-14T01:51:49;22.75;;;10.43;;
68188;SDS011;66299;47.514;19.218;2023-03-14T01:54:25;19.77;;;9.73;;
68188;SDS011;66299;47.514;19.218;2023-03-14T01:57:01;22.50;;;10.75;;
68188;SDS011;66299;47.514;19.218;2023-03-14T01:59:35;20.90;;;10.48;;
68188;SDS011;66299;47.514;19.218;2023-03-14T02:02:05;20.67;;;10.68;;
68188;SDS011;66299;47.514;19.218;2023-03-14T02:04:38;22.38;;;10.80;;
68188;SDS011;66299;47.514;19.218;2023-03-14T02:07:09;20.00;;;10.50;;
68188;SDS011;66299;47.514;19.218;2023-03-14T02:09:43;21.08;;;10.05;;
68188;SDS011;66299;47.514;19.218;2023-03-14T02:12:14;21.73;;;11.07;;
68188;SDS011;66299;47.514;19.218;2023-03-14T02:14:45;19.27;;;10.30;;
68188;SDS011;66299;47.514;19.218;2023-03-14T02:17:16;22.60;;;10.48;;
68188;SDS011;66299;47.514;19.218;2023-03-14T02:19:54;19.20;;;10.45;;
68188;SDS011;66299;47.514;19.218;2023-03-14T02:22:38;21.23;;;10.75;;
68188;SDS011;66299;47.514;19.218;2023-03-14T02:27:42;19.92;;;10.00;;
68188;SDS011;66299;47.514;19.218;2023-03-14T02:32:46;18.65;;;10.18;;
68188;SDS011;66299;47.514;19.218;2023-03-14T02:35:17;20.48;;;10.13;;
68188;SDS011;66299;47.514;19.218;2023-03-14T02:37:52;20.33;;;10.32;;
68188;SDS011;66299;47.514;19.218;2023-03-14T02:40:23;22.63;;;10.27;;
68188;SDS011;66299;47.514;19.218;2023-03-14T02:42:53;21.33;;;10.82;;
68188;SDS011;66299;47.514;19.218;2023-03-14T02:45:41;19.75;;;10.10;;
68188;SDS011;66299;47.514;19.218;2023-03-14T02:48:17;23.63;;;10.60;;
68188;SDS011;66299;47.514;19.218;2023-03-14T02:50:48;19.08;;;9.98;;
68188;SDS011;66299;47.514;19.218;2023-03-14T02:53:21;20.02;;;10.40;;
68188;SDS011;66299;47.514;19.218;2023-03-14T02:55:53;20.70;;;10.27;;
68188;SDS011;66299;47.514;19.218;2023-03-14T02:58:24;18.88;;;9.52;;
68188;SDS011;66299;47.514;19.218;2023-03-14T03:00:56;17.90;;;9.45;;
68188;SDS011;66299;47.514;19.218;2023-03-14T03:03:25;19.17;;;9.85;;
68188;SDS011;66299;47.514;19.218;2023-03-14T03:05:55;20.65;;;10.18;;
68188;SDS011;66299;47.514;19.218;2023-03-14T03:08:25;22.05;;;10.00;;
68188;SDS011;66299;47.514;19.218;2023-03-14T03:10:56;20.08;;;10.68;;
68188;SDS011;66299;47.514;19.218;2023-03-14T03:13:28;20.85;;;9.27;;
68188;SDS011;66299;47.514;19.218;2023-03-14T03:15:56;20.20;;;9.77;;
68188;SDS011;66299;47.514;19.218;2023-03-14T03:18:26;20.83;;;9.75;;
68188;SDS011;66299;47.514;19.218;2023-03-14T03:20:59;17.73;;;9.48;;
68188;SDS011;66299;47.514;19.218;2023-03-14T03:23:28;19.55;;;9.73;;
68188;SDS011;66299;47.514;19.218;2023-03-14T03:25:57;19.80;;;9.45;;
68188;SDS011;66299;47.514;19.218;2023-03-14T03:28:27;19.25;;;9.15;;
68188;SDS011;66299;47.514;19.218;2023-03-14T03:30:55;18.67;;;9.43;;
68188;SDS011;66299;47.514;19.218;2023-03-14T03:33:26;18.50;;;9.10;;
68188;SDS011;66299;47.514;19.218;2023-03-14T03:35:55;18.40;;;8.80;;
68188;SDS011;66299;47.514;19.218;2023-03-14T03:38:26;19.00;;;9.43;;
68188;SDS011;66299;47.514;19.218;2023-03-14T03:40:54;17.95;;;8.70;;
68188;SDS011;66299;47.514;19.218;2023-03-14T03:43:24;17.38;;;8.52;;
68188;SDS011;66299;47.514;19.218;2023-03-14T03:45:53;19.45;;;9.55;;
68188;SDS011;66299;47.514;19.218;2023-03-14T03:48:23;17.27;;;8.73;;
68188;SDS011;66299;47.514;19.218;2023-03-14T03:50:52;19.00;;;8.73;;
68188;SDS011;66299;47.514;19.218;2023-03-14T03:53:25;19.25;;;9.00;;
68188;SDS011;66299;47.514;19.218;2023-03-14T03:55:59;18.15;;;9.00;;
68188;SDS011;66299;47.514;19.218;2023-03-14T03:58:31;17.77;;;8.52;;
68188;SDS011;66299;47.514;19.218;2023-03-14T04:01:01;20.63;;;9.20;;
68188;SDS011;66299;47.514;19.218;2023-03-14T04:03:31;17.75;;;8.95;;
68188;SDS011;66299;47.514;19.218;2023-03-14T04:06:01;17.90;;;8.77;;
68188;SDS011;66299;47.514;19.218;2023-03-14T04:08:34;18.17;;;9.00;;
68188;SDS011;66299;47.514;19.218;2023-03-14T04:11:04;19.90;;;9.13;;
68188;SDS011;66299;47.514;19.218;2023-03-14T04:13:33;17.30;;;8.73;;
68188;SDS011;66299;47.514;19.218;2023-03-14T04:16:03;17.10;;;8.52;;
68188;SDS011;66299;47.514;19.218;2023-03-14T04:18:38;17.17;;;8.93;;
68188;SDS011;66299;47.514;19.218;2023-03-14T04:21:06;19.52;;;8.40;;
68188;SDS011;66299;47.514;19.218;2023-03-14T04:23:38;18.05;;;8.75;;
68188;SDS011;66299;47.514;19.218;2023-03-14T04:26:07;18.00;;;8.65;;
68188;SDS011;66299;47.514;19.218;2023-03-14T04:28:38;16.85;;;8.18;;
68188;SDS011;66299;47.514;19.218;2023-03-14T04:31:08;19.30;;;8.90;;
68188;SDS011;66299;47.514;19.218;2023-03-14T04:33:40;17.98;;;7.95;;
68188;SDS011;66299;47.514;19.218;2023-03-14T04:36:14;20.65;;;8.75;;
68188;SDS011;66299;47.514;19.218;2023-03-14T04:38:43;18.75;;;8.50;;
68188;SDS011;66299;47.514;19.218;2023-03-14T04:41:12;17.08;;;8.65;;
68188;SDS011;66299;47.514;19.218;2023-03-14T04:43:41;16.40;;;7.90;;
68188;SDS011;66299;47.514;19.218;2023-03-14T04:46:12;16.90;;;8.52;;
68188;SDS011;66299;47.514;19.218;2023-03-14T04:48:41;15.95;;;8.13;;
68188;SDS011;66299;47.514;19.218;2023-03-14T04:51:12;17.00;;;8.32;;
68188;SDS011;66299;47.514;19.218;2023-03-14T04:53:40;19.02;;;8.10;;
68188;SDS011;66299;47.514;19.218;2023-03-14T04:56:09;16.85;;;7.97;;
68188;SDS011;66299;47.514;19.218;2023-03-14T04:58:39;18.27;;;8.20;;
68188;SDS011;66299;47.514;19.218;2023-03-14T05:01:07;16.65;;;7.82;;
68188;SDS011;66299;47.514;19.218;2023-03-14T05:03:39;16.55;;;7.63;;
68188;SDS011;66299;47.514;19.218;2023-03-14T05:06:09;17.00;;;8.18;;
68188;SDS011;66299;47.514;19.218;2023-03-14T05:08:38;15.50;;;7.65;;
68188;SDS011;66299;47.514;19.218;2023-03-14T05:11:09;17.15;;;8.00;;
68188;SDS011;66299;47.514;19.218;2023-03-14T05:13:38;15.75;;;7.05;;
68188;SDS011;66299;47.514;19.218;2023-03-14T05:16:08;19.55;;;7.93;;
68188;SDS011;66299;47.514;19.218;2023-03-14T05:18:41;17.05;;;8.02;;
68188;SDS011;66299;47.514;19.218;2023-03-14T05:21:09;16.10;;;7.63;;
68188;SDS011;66299;47.514;19.218;2023-03-14T05:23:39;16.15;;;7.32;;
68188;SDS011;66299;47.514;19.218;2023-03-14T05:26:08;18.48;;;7.80;;
68188;SDS011;66299;47.514;19.218;2023-03-14T05:28:40;17.80;;;7.63;;
68188;SDS011;66299;47.514;19.218;2023-03-14T05:31:09;15.95;;;7.63;;
68188;SDS011;66299;47.514;19.218;2023-03-14T05:33:38;17.83;;;8.13;;
68188;SDS011;66299;47.514;19.218;2023-03-14T05:36:10;17.63;;;8.18;;
68188;SDS011;66299;47.514;19.218;2023-03-14T05:38:38;14.68;;;7.53;;
68188;SDS011;66299;47.514;19.218;2023-03-14T05:41:08;18.27;;;7.72;;
68188;SDS011;66299;47.514;19.218;2023-03-14T05:43:39;17.67;;;7.68;;
68188;SDS011;66299;47.514;19.218;2023-03-14T05:46:07;18.73;;;7.60;;
68188;SDS011;66299;47.514;19.218;2023-03-14T05:48:36;18.67;;;7.57;;
68188;SDS011;66299;47.514;19.218;2023-03-14T05:51:07;18.02;;;7.63;;
68188;SDS011;66299;47.514;19.218;2023-03-14T05:53:35;17.88;;;7.50;;
68188;SDS011;66299;47.514;19.218;2023-03-14T05:56:03;16.08;;;7.80;;
68188;SDS011;66299;47.514;19.218;2023-03-14T05:58:34;17.73;;;7.80;;
68188;SDS011;66299;47.514;19.218;2023-03-14T06:01:03;16.23;;;7.63;;
68188;SDS011;66299;47.514;19.218;2023-03-14T06:03:34;18.00;;;7.72;;
68188;SDS011;66299;47.514;19.218;2023-03-14T06:06:07;18.80;;;7.35;;
68188;SDS011;66299;47.514;19.218;2023-03-14T06:08:36;15.77;;;6.70;;
68188;SDS011;66299;47.514;19.218;2023-03-14T06:11:07;15.00;;;7.22;;
68188;SDS011;66299;47.514;19.218;2023-03-14T06:13:37;15.35;;;7.28;;
68188;SDS011;66299;47.514;19.218;2023-03-14T06:16:06;16.50;;;7.22;;
68188;SDS011;66299;47.514;19.218;2023-03-14T06:18:36;22.77;;;7.63;;
68188;SDS011;66299;47.514;19.218;2023-03-14T06:21:08;15.55;;;6.60;;
68188;SDS011;66299;47.514;19.218;2023-03-14T06:23:38;15.20;;;7.13;;
68188;SDS011;66299;47.514;19.218;2023-03-14T06:26:07;16.23;;;7.00;;
68188;SDS011;66299;47.514;19.218;2023-03-14T06:28:38;15.70;;;6.90;;
68188;SDS011;66299;47.514;19.218;2023-03-14T06:31:10;17.10;;;7.03;;
68188;SDS011;66299;47.514;19.218;2023-03-14T06:33:40;16.27;;;7.22;;
68188;SDS011;66299;47.514;19.218;2023-03-14T06:36:12;16.33;;;7.68;;
68188;SDS011;66299;47.514;19.218;2023-03-14T06:38:40;21.50;;;8.15;;
68188;SDS011;66299;47.514;19.218;2023-03-14T06:41:10;16.73;;;7.45;;
68188;SDS011;66299;47.514;19.218;2023-03-14T06:43:42;18.67;;;8.50;;
68188;SDS011;66299;47.514;19.218;2023-03-14T06:46:10;19.67;;;7.50;;
68188;SDS011;66299;47.514;19.218;2023-03-14T06:48:39;16.98;;;7.05;;
68188;SDS011;66299;47.514;19.218;2023-03-14T06:51:08;16.75;;;7.18;;
68188;SDS011;66299;47.514;19.218;2023-03-14T06:53:38;15.40;;;7.20;;
68188;SDS011;66299;47.514;19.218;2023-03-14T06:56:09;17.42;;;7.13;;
68188;SDS011;66299;47.514;19.218;2023-03-14T06:58:45;15.75;;;6.88;;
68188;SDS011;66299;47.514;19.218;2023-03-14T07:01:17;14.80;;;7.05;;
68188;SDS011;66299;47.514;19.218;2023-03-14T07:03:50;14.30;;;6.60;;
68188;SDS011;66299;47.514;19.218;2023-03-14T07:06:23;16.25;;;6.68;;
68188;SDS011;66299;47.514;19.218;2023-03-14T07:08:52;16.67;;;6.88;;
68188;SDS011;66299;47.514;19.218;2023-03-14T07:11:23;14.43;;;6.57;;
68188;SDS011;66299;47.514;19.218;2023-03-14T07:13:53;14.07;;;6.40;;
68188;SDS011;66299;47.514;19.218;2023-03-14T07:16:21;17.15;;;6.25;;
68188;SDS011;66299;47.514;19.218;2023-03-14T07:18:50;15.27;;;6.35;;
68188;SDS011;66299;47.514;19.218;2023-03-14T07:21:19;15.07;;;5.82;;
68188;SDS011;66299;47.514;19.218;2023-03-14T07:23:49;23.88;;;6.07;;
68188;SDS011;66299;47.514;19.218;2023-03-14T07:26:18;19.50;;;6.10;;
68188;SDS011;66299;47.514;19.218;2023-03-14T07:28:48;15.60;;;5.70;;
68188;SDS011;66299;47.514;19.218;2023-03-14T07:31:24;14.27;;;5.75;;
68188;SDS011;66299;47.514;19.218;2023-03-14T07:33:54;14.60;;;6.00;;
68188;SDS011;66299;47.514;19.218;2023-03-14T07:36:25;17.80;;;5.75;;
68188;SDS011;66299;47.514;19.218;2023-03-14T07:38:57;14.95;;;6.43;;
68188;SDS011;66299;47.514;19.218;2023-03-14T07:41:28;13.50;;;5.50;;
68188;SDS011;66299;47.514;19.218;2023-03-14T07:44:02;15.88;;;5.78;;
68188;SDS011;66299;47.514;19.218;2023-03-14T07:46:32;12.88;;;5.93;;
68188;SDS011;66299;47.514;19.218;2023-03-14T07:49:01;16.58;;;5.70;;
68188;SDS011;66299;47.514;19.218;2023-03-14T07:51:31;13.30;;;5.95;;
68188;SDS011;66299;47.514;19.218;2023-03-14T07:54:02;13.63;;;5.70;;
68188;SDS011;66299;47.514;19.218;2023-03-14T07:56:35;13.50;;;5.57;;
68188;SDS011;66299;47.514;19.218;2023-03-14T07:59:05;14.10;;;5.88;;
68188;SDS011;66299;47.514;19.218;2023-03-14T08:01:36;13.55;;;5.68;;
68188;SDS011;66299;47.514;19.218;2023-03-14T08:04:07;17.08;;;5.78;;
68188;SDS011;66299;47.514;19.218;2023-03-14T08:06:38;18.85;;;5.57;;
68188;SDS011;66299;47.514;19.218;2023-03-14T08:09:13;16.98;;;5.93;;
68188;SDS011;66299;47.514;19.218;2023-03-14T08:11:44;14.07;;;5.70;;
68188;SDS011;66299;47.514;19.218;2023-03-14T08:14:17;21.45;;;6.25;;
68188;SDS011;66299;47.514;19.218;2023-03-14T08:16:45;15.10;;;6.85;;
68188;SDS011;66299;47.514;19.218;2023-03-14T08:19:17;16.95;;;6.43;;
68188;SDS011;66299;47.514;19.218;2023-03-14T08:21:46;16.35;;;5.13;;
68188;SDS011;66299;47.514;19.218;2023-03-14T08:24:18;14.63;;;5.25;;
68188;SDS011;66299;47.514;19.218;2023-03-14T08:26:49;14.90;;;5.45;;
68188;SDS011;66299;47.514;19.218;2023-03-14T08:29:19;14.80;;;4.97;;
68188;SDS011;66299;47.514;19.218;2023-03-14T08:31:49;15.32;;;5.05;;
68188;SDS011;66299;47.514;19.218;2023-03-14T08:34:19;16.05;;;5.30;;
68188;SDS011;66299;47.514;19.218;2023-03-14T08:36:49;12.20;;;4.97;;
68188;SDS011;66299;47.514;19.218;2023-03-14T08:39:21;12.23;;;4.78;;
68188;SDS011;66299;47.514;19.218;2023-03-14T08:41:51;14.20;;;5.03;;
68188;SDS011;66299;47.514;19.218;2023-03-14T08:44:20;15.70;;;5.32;;
68188;SDS011;66299;47.514;19.218;2023-03-14T08:46:51;14.13;;;4.90;;
68188;SDS011;66299;47.514;19.218;2023-03-14T08:49:22;18.88;;;4.95;;
68188;SDS011;66299;47.514;19.218;2023-03-14T08:51:51;15.20;;;4.70;;
68188;SDS011;66299;47.514;19.218;2023-03-14T08:54:22;12.25;;;4.28;;
68188;SDS011;66299;47.514;19.218;2023-03-14T08:56:53;14.93;;;4.32;;
68188;SDS011;66299;47.514;19.218;2023-03-14T08:59:23;13.88;;;4.20;;
68188;SDS011;66299;47.514;19.218;2023-03-14T09:01:52;12.27;;;3.97;;
68188;SDS011;66299;47.514;19.218;2023-03-14T09:04:22;10.63;;;3.90;;
68188;SDS011;66299;47.514;19.218;2023-03-14T09:06:52;10.63;;;3.60;;
68188;SDS011;66299;47.514;19.218;2023-03-14T09:09:39;11.50;;;4.00;;
68188;SDS011;66299;47.514;19.218;2023-03-14T09:12:11;10.57;;;4.00;;
68188;SDS011;66299;47.514;19.218;2023-03-14T09:14:45;12.77;;;4.03;;
68188;SDS011;66299;47.514;19.218;2023-03-14T09:17:13;10.63;;;4.43;;
68188;SDS011;66299;47.514;19.218;2023-03-14T09:19:44;11.63;;;4.18;;
68188;SDS011;66299;47.514;19.218;2023-03-14T09:22:13;12.52;;;4.55;;
68188;SDS011;66299;47.514;19.218;2023-03-14T09:24:43;12.55;;;4.55;;
68188;SDS011;66299;47.514;19.218;2023-03-14T09:27:15;13.80;;;4.50;;
68188;SDS011;66299;47.514;19.218;2023-03-14T09:29:44;16.20;;;4.65;;
68188;SDS011;66299;47.514;19.218;2023-03-14T09:32:13;13.40;;;4.70;;
68188;SDS011;66299;47.514;19.218;2023-03-14T09:34:44;11.00;;;4.70;;
68188;SDS011;66299;47.514;19.218;2023-03-14T09:37:15;14.43;;;5.00;;
68188;SDS011;66299;47.514;19.218;2023-03-14T09:39:45;15.23;;;5.07;;
68188;SDS011;66299;47.514;19.218;2023-03-14T09:42:14;11.95;;;4.57;;
68188;SDS011;66299;47.514;19.218;2023-03-14T09:44:47;13.90;;;5.00;;
68188;SDS011;66299;47.514;19.218;2023-03-14T09:47:21;17.27;;;4.93;;
68188;SDS011;66299;47.514;19.218;2023-03-14T09:49:52;15.63;;;4.50;;
68188;SDS011;66299;47.514;19.218;2023-03-14T09:52:21;14.88;;;4.72;;
68188;SDS011;66299;47.514;19.218;2023-03-14T09:54:56;12.68;;;4.47;;
68188;SDS011;66299;47.514;19.218;2023-03-14T09:57:32;12.32;;;4.60;;
68188;SDS011;66299;47.514;19.218;2023-03-14T10:00:04;12.48;;;4.25;;
68188;SDS011;66299;47.514;19.218;2023-03-14T10:02:46;15.48;;;4.55;;
68188;SDS011;66299;47.514;19.218;2023-03-14T10:05:20;14.10;;;4.30;;
68188;SDS011;66299;47.514;19.218;2023-03-14T10:07:49;12.18;;;4.05;;
68188;SDS011;66299;47.514;19.218;2023-03-14T10:10:21;11.98;;;4.18;;
68188;SDS011;66299;47.514;19.218;2023-03-14T10:15:24;13.18;;;4.57;;
68188;SDS011;66299;47.514;19.218;2023-03-14T10:17:54;10.47;;;4.37;;
68188;SDS011;66299;47.514;19.218;2023-03-14T10:20:29;20.50;;;4.40;;
68188;SDS011;66299;47.514;19.218;2023-03-14T10:23:03;12.52;;;4.05;;
68188;SDS011;66299;47.514;19.218;2023-03-14T10:25:37;14.10;;;3.90;;
68188;SDS011;66299;47.514;19.218;2023-03-14T10:28:10;10.70;;;3.92;;
68188;SDS011;66299;47.514;19.218;2023-03-14T10:30:53;11.35;;;4.15;;
68188;SDS011;66299;47.514;19.218;2023-03-14T10:33:24;12.48;;;4.65;;
68188;SDS011;66299;47.514;19.218;2023-03-14T10:35:55;10.68;;;3.72;;
68188;SDS011;66299;47.514;19.218;2023-03-14T10:38:28;16.92;;;4.38;;
68188;SDS011;66299;47.514;19.218;2023-03-14T10:41:01;11.48;;;4.05;;
68188;SDS011;66299;47.514;19.218;2023-03-14T10:43:42;14.73;;;4.38;;
68188;SDS011;66299;47.514;19.218;2023-03-14T10:46:13;15.88;;;4.03;;
68188;SDS011;66299;47.514;19.218;2023-03-14T10:48:46;15.85;;;4.43;;
68188;SDS011;66299;47.514;19.218;2023-03-14T10:51:24;16.83;;;4.20;;
68188;SDS011;66299;47.514;19.218;2023-03-14T10:53:58;16.20;;;4.32;;
68188;SDS011;66299;47.514;19.218;2023-03-14T10:56:34;12.48;;;4.00;;
68188;SDS011;66299;47.514;19.218;2023-03-14T10:59:06;11.18;;;3.90;;
68188;SDS011;66299;47.514;19.218;2023-03-14T11:01:41;21.33;;;4.30;;
68188;SDS011;66299;47.514;19.218;2023-03-14T11:04:15;14.00;;;4.50;;
68188;SDS011;66299;47.514;19.218;2023-03-14T11:06:55;13.95;;;4.28;;
68188;SDS011;66299;47.514;19.218;2023-03-14T11:09:32;16.77;;;4.30;;
68188;SDS011;66299;47.514;19.218;2023-03-14T11:12:12;14.95;;;4.63;;
68188;SDS011;66299;47.514;19.218;2023-03-14T11:14:55;11.52;;;4.72;;
68188;SDS011;66299;47.514;19.218;2023-03-14T11:17:31;18.27;;;4.50;;
68188;SDS011;66299;47.514;19.218;2023-03-14T11:20:16;15.77;;;4.60;;
68188;SDS011;66299;47.514;19.218;2023-03-14T11:23:00;16.75;;;4.50;;
68188;SDS011;66299;47.514;19.218;2023-03-14T11:25:37;11.57;;;4.00;;
68188;SDS011;66299;47.514;19.218;2023-03-14T11:28:20;13.85;;;4.38;;
68188;SDS011;66299;47.514;19.218;2023-03-14T11:30:53;11.43;;;3.70;;
68188;SDS011;66299;47.514;19.218;2023-03-14T11:33:24;13.80;;;3.80;;
68188;SDS011;66299;47.514;19.218;2023-03-14T11:35:59;13.52;;;3.33;;
68188;SDS011;66299;47.514;19.218;2023-03-14T11:38:35;9.07;;;2.53;;
68188;SDS011;66299;47.514;19.218;2023-03-14T11:43:41;11.10;;;2.35;;
68188;SDS011;66299;47.514;19.218;2023-03-14T11:46:15;11.50;;;2.42;;
68188;SDS011;66299;47.514;19.218;2023-03-14T11:51:28;12.85;;;2.10;;
68188;SDS011;66299;47.514;19.218;2023-03-14T11:53:59;13.57;;;2.30;;
68188;SDS011;66299;47.514;19.218;2023-03-14T11:56:33;13.43;;;2.40;;
68188;SDS011;66299;47.514;19.218;2023-03-14T11:59:09;10.02;;;2.45;;
68188;SDS011;66299;47.514;19.218;2023-03-14T12:04:34;9.50;;;2.47;;
68188;SDS011;66299;47.514;19.218;2023-03-14T12:06:17;11.15;;;2.45;;
68188;SDS011;66299;47.514;19.218;2023-03-14T12:08:52;12.50;;;2.25;;
68188;SDS011;66299;47.514;19.218;2023-03-14T12:11:30;13.13;;;2.40;;
68188;SDS011;66299;47.514;19.218;2023-03-14T12:14:02;9.77;;;2.42;;
68188;SDS011;66299;47.514;19.218;2023-03-14T12:16:33;10.25;;;2.42;;
68188;SDS011;66299;47.514;19.218;2023-03-14T12:27:46;11.77;;;2.20;;
68188;SDS011;66299;47.514;19.218;2023-03-14T12:30:37;8.02;;;2.20;;
68188;SDS011;66299;47.514;19.218;2023-03-14T12:36:03;7.95;;;2.20;;
68188;SDS011;66299;47.514;19.218;2023-03-14T12:39:01;8.32;;;2.33;;
68188;SDS011;66299;47.514;19.218;2023-03-14T12:41:43;11.43;;;2.20;;
68188;SDS011;66299;47.514;19.218;2023-03-14T12:50:30;11.15;;;2.20;;
68188;SDS011;66299;47.514;19.218;2023-03-14T12:56:12;8.50;;;2.30;;
68188;SDS011;66299;47.514;19.218;2023-03-14T13:01:46;10.23;;;2.50;;
68188;SDS011;66299;47.514;19.218;2023-03-14T13:04:26;9.38;;;2.40;;
68188;SDS011;66299;47.514;19.218;2023-03-14T13:07:10;11.23;;;2.28;;
68188;SDS011;66299;47.514;19.218;2023-03-14T13:12:43;9.05;;;2.30;;
68188;SDS011;66299;47.514;19.218;2023-03-14T13:15:21;8.45;;;2.40;;
68188;SDS011;66299;47.514;19.218;2023-03-14T13:17:53;8.85;;;2.33;;
68188;SDS011;66299;47.514;19.218;2023-03-14T13:20:29;11.48;;;2.45;;
68188;SDS011;66299;47.514;19.218;2023-03-14T13:23:03;14.90;;;2.70;;
68188;SDS011;66299;47.514;19.218;2023-03-14T13:25:32;8.80;;;2.60;;
68188;SDS011;66299;47.514;19.218;2023-03-14T13:28:03;11.57;;;2.60;;
68188;SDS011;66299;47.514;19.218;2023-03-14T13:30:38;9.15;;;2.33;;
68188;SDS011;66299;47.514;19.218;2023-03-14T13:33:12;9.52;;;2.55;;
68188;SDS011;66299;47.514;19.218;2023-03-14T13:35:43;9.55;;;2.47;;
68188;SDS011;66299;47.514;19.218;2023-03-14T13:38:17;8.27;;;2.30;;
68188;SDS011;66299;47.514;19.218;2023-03-14T13:40:47;12.45;;;2.65;;
68188;SDS011;66299;47.514;19.218;2023-03-14T13:43:18;10.70;;;2.50;;
68188;SDS011;66299;47.514;19.218;2023-03-14T13:45:52;10.13;;;2.40;;
68188;SDS011;66299;47.514;19.218;2023-03-14T13:48:25;8.13;;;2.30;;
68188;SDS011;66299;47.514;19.218;2023-03-14T13:50:56;8.75;;;2.40;;
68188;SDS011;66299;47.514;19.218;2023-03-14T13:53:30;8.05;;;2.58;;
68188;SDS011;66299;47.514;19.218;2023-03-14T13:56:03;10.27;;;2.80;;
68188;SDS011;66299;47.514;19.218;2023-03-14T13:58:37;14.82;;;2.45;;
68188;SDS011;66299;47.514;19.218;2023-03-14T14:01:10;11.98;;;2.60;;
68188;SDS011;66299;47.514;19.218;2023-03-14T14:03:41;11.45;;;3.00;;
68188;SDS011;66299;47.514;19.218;2023-03-14T14:06:16;12.20;;;2.90;;
68188;SDS011;66299;47.514;19.218;2023-03-14T14:08:52;12.45;;;3.08;;
68188;SDS011;66299;47.514;19.218;2023-03-14T14:11:26;11.07;;;3.20;;
68188;SDS011;66299;47.514;19.218;2023-03-14T14:16:46;11.30;;;3.40;;
68188;SDS011;66299;47.514;19.218;2023-03-14T14:19:19;14.02;;;3.30;;
68188;SDS011;66299;47.514;19.218;2023-03-14T14:21:50;9.82;;;3.40;;
68188;SDS011;66299;47.514;19.218;2023-03-14T14:24:21;11.88;;;3.50;;
68188;SDS011;66299;47.514;19.218;2023-03-14T14:26:52;12.02;;;3.75;;
68188;SDS011;66299;47.514;19.218;2023-03-14T14:29:25;12.25;;;3.55;;
68188;SDS011;66299;47.514;19.218;2023-03-14T14:32:00;13.15;;;3.50;;
68188;SDS011;66299;47.514;19.218;2023-03-14T14:34:29;11.73;;;3.22;;
68188;SDS011;66299;47.514;19.218;2023-03-14T14:37:14;14.02;;;3.55;;
68188;SDS011;66299;47.514;19.218;2023-03-14T14:39:51;14.38;;;3.53;;
68188;SDS011;66299;47.514;19.218;2023-03-14T14:42:24;10.95;;;3.42;;
68188;SDS011;66299;47.514;19.218;2023-03-14T14:44:56;16.30;;;4.18;;
68188;SDS011;66299;47.514;19.218;2023-03-14T14:47:28;12.13;;;3.97;;
68188;SDS011;66299;47.514;19.218;2023-03-14T14:50:00;11.80;;;4.43;;
68188;SDS011;66299;47.514;19.218;2023-03-14T14:52:34;11.65;;;3.78;;
68188;SDS011;66299;47.514;19.218;2023-03-14T14:55:16;9.98;;;3.90;;
68188;SDS011;66299;47.514;19.218;2023-03-14T14:57:49;10.05;;;3.63;;
68188;SDS011;66299;47.514;19.218;2023-03-14T15:00:21;11.25;;;3.80;;
68188;SDS011;66299;47.514;19.218;2023-03-14T15:02:51;12.90;;;3.65;;
68188;SDS011;66299;47.514;19.218;2023-03-14T15:05:22;12.45;;;3.97;;
68188;SDS011;66299;47.514;19.218;2023-03-14T15:07:54;11.63;;;3.83;;
68188;SDS011;66299;47.514;19.218;2023-03-14T15:10:24;13.18;;;3.75;;
68188;SDS011;66299;47.514;19.218;2023-03-14T15:12:53;11.68;;;4.00;;
68188;SDS011;66299;47.514;19.218;2023-03-14T15:15:21;13.98;;;4.03;;
68188;SDS011;66299;47.514;19.218;2023-03-14T15:17:50;14.30;;;3.78;;
68188;SDS011;66299;47.514;19.218;2023-03-14T15:20:19;12.50;;;3.90;;
68188;SDS011;66299;47.514;19.218;2023-03-14T15:22:50;11.63;;;3.75;;
68188;SDS011;66299;47.514;19.218;2023-03-14T15:25:18;10.77;;;3.95;;
68188;SDS011;66299;47.514;19.218;2023-03-14T15:28:15;11.73;;;3.70;;
68188;SDS011;66299;47.514;19.218;2023-03-14T15:30:46;12.77;;;3.80;;
68188;SDS011;66299;47.514;19.218;2023-03-14T15:33:15;12.00;;;3.90;;